sensor_id;sensor_type;location;lat;lon;timestamp;P1;durP1;ratioP1;P2;durP2;ratioP2
8094;SDS011;4090;49.270;8.696;2023-08-01T00:00:57;5.80;;;3.10;;
8094;SDS011;4090;49.270;8.696;2023-08-01T00:03:39;6.03;;;3.45;;
8094;SDS011;4090;49.270;8.696;2023-08-01T00:06:21;6.07;;;3.90;;
8094;SDS011;4090;49.270;8.696;2023-08-01T00:09:04;5.72;;;3.20;;
8094;SDS011;4090;49.270;8.696;2023-08-01T00:11:46;6.82;;;3.25;;
8094;SDS011;4090;49.270;8.696;2023-08-01T00:14:32;4.43;;;2.90;;
8094;SDS011;4090;49.270;8.696;2023-08-01T00:17:14;7.50;;;2.90;;
8094;SDS011;4090;49.270;8.696;2023-08-01T00:19:56;8.00;;;3.60;;
8094;SDS011;4090;49.270;8.696;2023-08-01T00:22:38;6.60;;;3.80;;
8094;SDS011;4090;49.270;8.696;2023-08-01T00:25:20;6.10;;;3.60;;
8094;SDS011;4090;49.270;8.696;2023-08-01T00:28:02;7.13;;;3.20;;
8094;SDS011;4090;49.270;8.696;2023-08-01T00:30:45;5.72;;;3.58;;
8094;SDS011;4090;49.270;8.696;2023-08-01T00:33:28;4.28;;;3.40;;
8094;SDS011;4090;49.270;8.696;2023-08-01T00:36:21;6.50;;;3.40;;
8094;SDS011;4090;49.270;8.696;2023-08-01T00:39:02;6.82;;;3.55;;
8094;SDS011;4090;49.270;8.696;2023-08-01T00:41:44;6.53;;;3.33;;
8094;SDS011;4090;49.270;8.696;2023-08-01T00:44:26;8.00;;;3.30;;
8094;SDS011;4090;49.270;8.696;2023-08-01T00:47:09;6.25;;;3.22;;
8094;SDS011;4090;49.270;8.696;2023-08-01T00:49:52;5.43;;;3.35;;
8094;SDS011;4090;49.270;8.696;2023-08-01T00:52:34;6.03;;;3.25;;
8094;SDS011;4090;49.270;8.696;2023-08-01T00:55:16;4.55;;;3.10;;
8094;SDS011;4090;49.270;8.696;2023-08-01T00:57:58;6.05;;;3.25;;
8094;SDS011;4090;49.270;8.696;2023-08-01T01:00:41;5.28;;;3.38;;
8094;SDS011;4090;49.270;8.696;2023-08-01T01:03:24;6.07;;;3.33;;
8094;SDS011;4090;49.270;8.696;2023-08-01T01:06:06;5.88;;;3.45;;
8094;SDS011;4090;49.270;8.696;2023-08-01T01:08:53;8.60;;;3.40;;
8094;SDS011;4090;49.270;8.696;2023-08-01T01:11:35;5.13;;;3.47;;
8094;SDS011;4090;49.270;8.696;2023-08-01T01:14:17;4.57;;;3.20;;
8094;SDS011;4090;49.270;8.696;2023-08-01T01:16:59;6.65;;;3.22;;
8094;SDS011;4090;49.270;8.696;2023-08-01T01:19:42;5.38;;;2.92;;
8094;SDS011;4090;49.270;8.696;2023-08-01T01:22:25;3.58;;;2.85;;
8094;SDS011;4090;49.270;8.696;2023-08-01T01:25:08;4.70;;;3.50;;
8094;SDS011;4090;49.270;8.696;2023-08-01T01:27:52;6.78;;;3.55;;
8094;SDS011;4090;49.270;8.696;2023-08-01T01:30:34;5.22;;;3.47;;
8094;SDS011;4090;49.270;8.696;2023-08-01T01:33:17;5.57;;;3.45;;
8094;SDS011;4090;49.270;8.696;2023-08-01T01:36:00;7.40;;;3.20;;
8094;SDS011;4090;49.270;8.696;2023-08-01T01:38:43;7.78;;;3.30;;
8094;SDS011;4090;49.270;8.696;2023-08-01T01:41:25;7.47;;;3.95;;
8094;SDS011;4090;49.270;8.696;2023-08-01T01:44:07;5.13;;;3.53;;
8094;SDS011;4090;49.270;8.696;2023-08-01T01:46:49;5.65;;;3.88;;
8094;SDS011;4090;49.270;8.696;2023-08-01T01:49:31;5.47;;;3.65;;
8094;SDS011;4090;49.270;8.696;2023-08-01T01:52:13;8.82;;;3.50;;
8094;SDS011;4090;49.270;8.696;2023-08-01T01:54:56;6.13;;;3.25;;
8094;SDS011;4090;49.270;8.696;2023-08-01T01:57:38;5.57;;;3.35;;
8094;SDS011;4090;49.270;8.696;2023-08-01T02:00:20;8.50;;;4.18;;
8094;SDS011;4090;49.270;8.696;2023-08-01T02:03:02;6.47;;;3.90;;
8094;SDS011;4090;49.270;8.696;2023-08-01T02:05:44;8.25;;;3.88;;
8094;SDS011;4090;49.270;8.696;2023-08-01T02:08:26;6.15;;;3.38;;
8094;SDS011;4090;49.270;8.696;2023-08-01T02:11:09;5.82;;;3.70;;
8094;SDS011;4090;49.270;8.696;2023-08-01T02:13:51;6.93;;;3.55;;
8094;SDS011;4090;49.270;8.696;2023-08-01T02:16:34;5.50;;;3.55;;
8094;SDS011;4090;49.270;8.696;2023-08-01T02:19:16;4.80;;;3.28;;
8094;SDS011;4090;49.270;8.696;2023-08-01T02:21:58;7.68;;;3.65;;
8094;SDS011;4090;49.270;8.696;2023-08-01T02:24:39;5.50;;;3.38;;
8094;SDS011;4090;49.270;8.696;2023-08-01T02:27:23;8.85;;;4.25;;
8094;SDS011;4090;49.270;8.696;2023-08-01T02:30:05;4.97;;;3.28;;
8094;SDS011;4090;49.270;8.696;2023-08-01T02:32:49;5.63;;;3.63;;
8094;SDS011;4090;49.270;8.696;2023-08-01T02:35:32;5.70;;;3.28;;
8094;SDS011;4090;49.270;8.696;2023-08-01T02:38:14;6.90;;;3.20;;
8094;SDS011;4090;49.270;8.696;2023-08-01T02:40:55;8.40;;;4.15;;
8094;SDS011;4090;49.270;8.696;2023-08-01T02:43:39;5.35;;;3.50;;
8094;SDS011;4090;49.270;8.696;2023-08-01T02:46:22;7.18;;;3.20;;
8094;SDS011;4090;49.270;8.696;2023-08-01T02:49:04;5.07;;;3.33;;
8094;SDS011;4090;49.270;8.696;2023-08-01T02:51:46;6.60;;;3.50;;
8094;SDS011;4090;49.270;8.696;2023-08-01T02:54:28;4.78;;;3.40;;
8094;SDS011;4090;49.270;8.696;2023-08-01T02:57:10;8.80;;;4.57;;
8094;SDS011;4090;49.270;8.696;2023-08-01T02:59:53;6.15;;;3.78;;
8094;SDS011;4090;49.270;8.696;2023-08-01T03:02:35;36.08;;;6.43;;
8094;SDS011;4090;49.270;8.696;2023-08-01T03:05:17;8.15;;;3.72;;
8094;SDS011;4090;49.270;8.696;2023-08-01T03:07:59;8.82;;;3.60;;
8094;SDS011;4090;49.270;8.696;2023-08-01T03:10:41;6.97;;;3.67;;
8094;SDS011;4090;49.270;8.696;2023-08-01T03:13:22;5.85;;;3.53;;
8094;SDS011;4090;49.270;8.696;2023-08-01T03:16:06;4.60;;;3.10;;
8094;SDS011;4090;49.270;8.696;2023-08-01T03:18:49;5.38;;;3.35;;
8094;SDS011;4090;49.270;8.696;2023-08-01T03:21:31;6.40;;;3.85;;
8094;SDS011;4090;49.270;8.696;2023-08-01T03:24:13;7.60;;;4.20;;
8094;SDS011;4090;49.270;8.696;2023-08-01T03:26:55;7.80;;;3.90;;
8094;SDS011;4090;49.270;8.696;2023-08-01T03:29:37;6.97;;;3.63;;
8094;SDS011;4090;49.270;8.696;2023-08-01T03:32:22;6.03;;;4.07;;
8094;SDS011;4090;49.270;8.696;2023-08-01T03:35:05;6.90;;;4.13;;
8094;SDS011;4090;49.270;8.696;2023-08-01T03:37:47;9.82;;;4.72;;
8094;SDS011;4090;49.270;8.696;2023-08-01T03:40:29;6.28;;;3.78;;
8094;SDS011;4090;49.270;8.696;2023-08-01T03:43:11;7.75;;;3.70;;
8094;SDS011;4090;49.270;8.696;2023-08-01T03:45:53;7.07;;;3.95;;
8094;SDS011;4090;49.270;8.696;2023-08-01T03:48:40;7.07;;;4.07;;
8094;SDS011;4090;49.270;8.696;2023-08-01T03:51:23;6.28;;;3.60;;
8094;SDS011;4090;49.270;8.696;2023-08-01T03:54:05;7.32;;;3.88;;
8094;SDS011;4090;49.270;8.696;2023-08-01T03:56:47;6.13;;;3.30;;
8094;SDS011;4090;49.270;8.696;2023-08-01T03:59:29;6.38;;;3.25;;
8094;SDS011;4090;49.270;8.696;2023-08-01T04:02:11;6.35;;;3.85;;
8094;SDS011;4090;49.270;8.696;2023-08-01T04:04:54;7.68;;;3.80;;
8094;SDS011;4090;49.270;8.696;2023-08-01T04:07:36;6.93;;;3.97;;
8094;SDS011;4090;49.270;8.696;2023-08-01T04:10:19;6.80;;;3.70;;
8094;SDS011;4090;49.270;8.696;2023-08-01T04:13:00;9.23;;;3.65;;
8094;SDS011;4090;49.270;8.696;2023-08-01T04:15:43;6.13;;;4.00;;
8094;SDS011;4090;49.270;8.696;2023-08-01T04:18:24;8.65;;;3.95;;
8094;SDS011;4090;49.270;8.696;2023-08-01T04:21:08;6.32;;;3.50;;
8094;SDS011;4090;49.270;8.696;2023-08-01T04:23:50;7.82;;;3.80;;
8094;SDS011;4090;49.270;8.696;2023-08-01T04:26:32;9.98;;;3.70;;
8094;SDS011;4090;49.270;8.696;2023-08-01T04:29:13;6.07;;;3.45;;
8094;SDS011;4090;49.270;8.696;2023-08-01T04:31:58;5.78;;;3.70;;
8094;SDS011;4090;49.270;8.696;2023-08-01T04:34:39;8.07;;;3.83;;
8094;SDS011;4090;49.270;8.696;2023-08-01T04:37:23;5.95;;;4.05;;
8094;SDS011;4090;49.270;8.696;2023-08-01T04:40:06;7.32;;;3.78;;
8094;SDS011;4090;49.270;8.696;2023-08-01T04:42:49;7.45;;;3.53;;
8094;SDS011;4090;49.270;8.696;2023-08-01T04:45:38;6.97;;;4.03;;
8094;SDS011;4090;49.270;8.696;2023-08-01T04:48:19;6.15;;;3.83;;
8094;SDS011;4090;49.270;8.696;2023-08-01T04:51:01;10.02;;;3.60;;
8094;SDS011;4090;49.270;8.696;2023-08-01T04:53:44;8.82;;;4.22;;
8094;SDS011;4090;49.270;8.696;2023-08-01T04:56:26;11.00;;;3.90;;
8094;SDS011;4090;49.270;8.696;2023-08-01T04:59:08;8.52;;;4.05;;
8094;SDS011;4090;49.270;8.696;2023-08-01T05:01:50;9.77;;;4.07;;
8094;SDS011;4090;49.270;8.696;2023-08-01T05:04:32;5.90;;;4.07;;
8094;SDS011;4090;49.270;8.696;2023-08-01T05:07:14;12.25;;;4.95;;
8094;SDS011;4090;49.270;8.696;2023-08-01T05:09:57;8.23;;;4.35;;
8094;SDS011;4090;49.270;8.696;2023-08-01T05:12:39;8.00;;;3.95;;
8094;SDS011;4090;49.270;8.696;2023-08-01T05:15:21;9.48;;;4.13;;
8094;SDS011;4090;49.270;8.696;2023-08-01T05:18:03;7.28;;;4.15;;
8094;SDS011;4090;49.270;8.696;2023-08-01T05:20:44;13.80;;;4.85;;
8094;SDS011;4090;49.270;8.696;2023-08-01T05:23:26;11.18;;;4.45;;
8094;SDS011;4090;49.270;8.696;2023-08-01T05:26:09;10.82;;;4.32;;
8094;SDS011;4090;49.270;8.696;2023-08-01T05:28:51;13.60;;;5.05;;
8094;SDS011;4090;49.270;8.696;2023-08-01T05:31:33;10.23;;;4.68;;
8094;SDS011;4090;49.270;8.696;2023-08-01T05:34:15;13.98;;;5.13;;
8094;SDS011;4090;49.270;8.696;2023-08-01T05:36:57;8.27;;;4.38;;
8094;SDS011;4090;49.270;8.696;2023-08-01T05:39:39;8.48;;;4.32;;
8094;SDS011;4090;49.270;8.696;2023-08-01T05:42:22;7.65;;;3.60;;
8094;SDS011;4090;49.270;8.696;2023-08-01T05:45:04;8.75;;;4.35;;
8094;SDS011;4090;49.270;8.696;2023-08-01T05:47:46;7.45;;;3.97;;
8094;SDS011;4090;49.270;8.696;2023-08-01T05:50:28;9.88;;;4.25;;
8094;SDS011;4090;49.270;8.696;2023-08-01T05:53:10;7.55;;;4.25;;
8094;SDS011;4090;49.270;8.696;2023-08-01T05:55:52;11.95;;;4.35;;
8094;SDS011;4090;49.270;8.696;2023-08-01T05:58:35;9.32;;;4.50;;
8094;SDS011;4090;49.270;8.696;2023-08-01T06:01:17;9.40;;;4.13;;
8094;SDS011;4090;49.270;8.696;2023-08-01T06:03:59;7.22;;;3.92;;
8094;SDS011;4090;49.270;8.696;2023-08-01T06:06:41;8.63;;;4.45;;
8094;SDS011;4090;49.270;8.696;2023-08-01T06:09:23;8.65;;;4.28;;
8094;SDS011;4090;49.270;8.696;2023-08-01T06:12:05;12.65;;;4.30;;
8094;SDS011;4090;49.270;8.696;2023-08-01T06:14:49;8.13;;;4.30;;
8094;SDS011;4090;49.270;8.696;2023-08-01T06:17:31;13.23;;;6.05;;
8094;SDS011;4090;49.270;8.696;2023-08-01T06:20:13;10.27;;;4.88;;
8094;SDS011;4090;49.270;8.696;2023-08-01T06:22:55;7.57;;;4.43;;
8094;SDS011;4090;49.270;8.696;2023-08-01T06:25:37;10.50;;;4.30;;
8094;SDS011;4090;49.270;8.696;2023-08-01T06:28:19;7.70;;;4.57;;
8094;SDS011;4090;49.270;8.696;2023-08-01T06:31:02;9.50;;;4.35;;
8094;SDS011;4090;49.270;8.696;2023-08-01T06:33:44;9.63;;;4.72;;
8094;SDS011;4090;49.270;8.696;2023-08-01T06:36:26;8.48;;;4.38;;
8094;SDS011;4090;49.270;8.696;2023-08-01T06:39:08;9.15;;;4.53;;
8094;SDS011;4090;49.270;8.696;2023-08-01T06:41:50;14.35;;;5.68;;
8094;SDS011;4090;49.270;8.696;2023-08-01T06:44:31;11.00;;;4.78;;
8094;SDS011;4090;49.270;8.696;2023-08-01T06:47:15;12.43;;;5.00;;
8094;SDS011;4090;49.270;8.696;2023-08-01T06:49:56;8.18;;;4.82;;
8094;SDS011;4090;49.270;8.696;2023-08-01T06:52:38;11.60;;;5.10;;
8094;SDS011;4090;49.270;8.696;2023-08-01T06:55:20;8.35;;;4.20;;
8094;SDS011;4090;49.270;8.696;2023-08-01T06:58:02;7.95;;;4.20;;
8094;SDS011;4090;49.270;8.696;2023-08-01T07:00:44;7.43;;;4.10;;
8094;SDS011;4090;49.270;8.696;2023-08-01T07:03:27;6.53;;;3.78;;
8094;SDS011;4090;49.270;8.696;2023-08-01T07:06:09;8.50;;;3.80;;
8094;SDS011;4090;49.270;8.696;2023-08-01T07:08:51;7.00;;;3.78;;
8094;SDS011;4090;49.270;8.696;2023-08-01T07:11:33;5.55;;;3.78;;
8094;SDS011;4090;49.270;8.696;2023-08-01T07:14:15;6.65;;;3.97;;
8094;SDS011;4090;49.270;8.696;2023-08-01T07:16:56;7.63;;;3.70;;
8094;SDS011;4090;49.270;8.696;2023-08-01T07:19:40;5.97;;;4.07;;
8094;SDS011;4090;49.270;8.696;2023-08-01T07:22:22;7.88;;;4.05;;
8094;SDS011;4090;49.270;8.696;2023-08-01T07:25:04;11.13;;;5.00;;
8094;SDS011;4090;49.270;8.696;2023-08-01T07:27:46;9.25;;;4.70;;
8094;SDS011;4090;49.270;8.696;2023-08-01T07:30:28;7.72;;;4.63;;
8094;SDS011;4090;49.270;8.696;2023-08-01T07:33:10;7.75;;;5.15;;
8094;SDS011;4090;49.270;8.696;2023-08-01T07:35:53;7.20;;;5.07;;
8094;SDS011;4090;49.270;8.696;2023-08-01T07:38:35;8.45;;;5.35;;
8094;SDS011;4090;49.270;8.696;2023-08-01T07:41:17;10.50;;;5.10;;
8094;SDS011;4090;49.270;8.696;2023-08-01T07:44:00;9.27;;;5.20;;
8094;SDS011;4090;49.270;8.696;2023-08-01T07:46:42;10.30;;;5.38;;
8094;SDS011;4090;49.270;8.696;2023-08-01T07:49:24;9.43;;;4.88;;
8094;SDS011;4090;49.270;8.696;2023-08-01T07:52:08;11.15;;;6.32;;
8094;SDS011;4090;49.270;8.696;2023-08-01T07:54:50;8.73;;;4.80;;
8094;SDS011;4090;49.270;8.696;2023-08-01T07:57:33;7.10;;;4.82;;
8094;SDS011;4090;49.270;8.696;2023-08-01T08:00:16;9.57;;;5.03;;
8094;SDS011;4090;49.270;8.696;2023-08-01T08:02:58;10.02;;;5.20;;
8094;SDS011;4090;49.270;8.696;2023-08-01T08:05:40;8.20;;;4.90;;
8094;SDS011;4090;49.270;8.696;2023-08-01T08:08:24;7.65;;;4.60;;
8094;SDS011;4090;49.270;8.696;2023-08-01T08:11:07;8.35;;;5.05;;
8094;SDS011;4090;49.270;8.696;2023-08-01T08:13:49;6.50;;;4.20;;
8094;SDS011;4090;49.270;8.696;2023-08-01T08:16:31;6.80;;;4.10;;
8094;SDS011;4090;49.270;8.696;2023-08-01T08:19:13;8.40;;;4.90;;
8094;SDS011;4090;49.270;8.696;2023-08-01T08:21:55;5.95;;;4.47;;
8094;SDS011;4090;49.270;8.696;2023-08-01T08:24:39;9.18;;;4.97;;
8094;SDS011;4090;49.270;8.696;2023-08-01T08:27:21;9.32;;;4.60;;
8094;SDS011;4090;49.270;8.696;2023-08-01T08:30:04;7.30;;;4.18;;
8094;SDS011;4090;49.270;8.696;2023-08-01T08:32:46;10.50;;;4.82;;
8094;SDS011;4090;49.270;8.696;2023-08-01T08:35:29;9.20;;;4.20;;
8094;SDS011;4090;49.270;8.696;2023-08-01T08:38:11;7.07;;;4.10;;
8094;SDS011;4090;49.270;8.696;2023-08-01T08:40:58;6.80;;;4.05;;
8094;SDS011;4090;49.270;8.696;2023-08-01T08:43:43;5.93;;;3.22;;
8094;SDS011;4090;49.270;8.696;2023-08-01T08:46:26;6.00;;;3.33;;
8094;SDS011;4090;49.270;8.696;2023-08-01T08:49:10;5.05;;;3.40;;
8094;SDS011;4090;49.270;8.696;2023-08-01T08:51:55;4.00;;;2.85;;
8094;SDS011;4090;49.270;8.696;2023-08-01T08:54:38;3.40;;;2.67;;
8094;SDS011;4090;49.270;8.696;2023-08-01T08:57:22;4.32;;;2.58;;
8094;SDS011;4090;49.270;8.696;2023-08-01T09:00:04;3.92;;;2.53;;
8094;SDS011;4090;49.270;8.696;2023-08-01T09:02:47;4.97;;;2.60;;
8094;SDS011;4090;49.270;8.696;2023-08-01T09:05:31;5.20;;;3.00;;
8094;SDS011;4090;49.270;8.696;2023-08-01T09:08:17;4.72;;;2.40;;
8094;SDS011;4090;49.270;8.696;2023-08-01T09:11:00;4.38;;;2.30;;
8094;SDS011;4090;49.270;8.696;2023-08-01T09:13:44;3.28;;;2.22;;
8094;SDS011;4090;49.270;8.696;2023-08-01T09:16:26;3.50;;;2.13;;
8094;SDS011;4090;49.270;8.696;2023-08-01T09:19:09;3.53;;;2.03;;
8094;SDS011;4090;49.270;8.696;2023-08-01T09:21:53;2.42;;;2.00;;
8094;SDS011;4090;49.270;8.696;2023-08-01T09:24:35;2.35;;;1.73;;
8094;SDS011;4090;49.270;8.696;2023-08-01T09:27:17;2.03;;;1.80;;
8094;SDS011;4090;49.270;8.696;2023-08-01T09:30:06;1.83;;;1.60;;
8094;SDS011;4090;49.270;8.696;2023-08-01T09:32:51;2.10;;;1.33;;
8094;SDS011;4090;49.270;8.696;2023-08-01T09:35:38;1.40;;;1.30;;
8094;SDS011;4090;49.270;8.696;2023-08-01T09:38:20;2.05;;;1.52;;
8094;SDS011;4090;49.270;8.696;2023-08-01T09:41:03;1.55;;;1.38;;
8094;SDS011;4090;49.270;8.696;2023-08-01T09:43:45;2.97;;;1.30;;
8094;SDS011;4090;49.270;8.696;2023-08-01T09:46:29;1.58;;;1.35;;
8094;SDS011;4090;49.270;8.696;2023-08-01T09:49:12;2.33;;;1.60;;
8094;SDS011;4090;49.270;8.696;2023-08-01T09:51:55;1.50;;;1.20;;
8094;SDS011;4090;49.270;8.696;2023-08-01T09:54:38;1.38;;;1.27;;
8094;SDS011;4090;49.270;8.696;2023-08-01T09:57:20;1.65;;;1.50;;
8094;SDS011;4090;49.270;8.696;2023-08-01T10:00:04;2.28;;;1.40;;
8094;SDS011;4090;49.270;8.696;2023-08-01T10:02:53;2.97;;;1.60;;
8094;SDS011;4090;49.270;8.696;2023-08-01T10:05:36;1.33;;;1.23;;
8094;SDS011;4090;49.270;8.696;2023-08-01T10:08:21;1.55;;;1.45;;
8094;SDS011;4090;49.270;8.696;2023-08-01T10:11:04;2.55;;;1.27;;
8094;SDS011;4090;49.270;8.696;2023-08-01T10:13:46;1.52;;;1.20;;
8094;SDS011;4090;49.270;8.696;2023-08-01T10:16:29;1.50;;;1.40;;
8094;SDS011;4090;49.270;8.696;2023-08-01T10:19:12;1.30;;;1.20;;
8094;SDS011;4090;49.270;8.696;2023-08-01T10:21:55;1.35;;;1.13;;
8094;SDS011;4090;49.270;8.696;2023-08-01T10:24:38;1.45;;;1.35;;
8094;SDS011;4090;49.270;8.696;2023-08-01T10:27:21;1.15;;;1.05;;
8094;SDS011;4090;49.270;8.696;2023-08-01T10:30:04;0.95;;;0.95;;
8094;SDS011;4090;49.270;8.696;2023-08-01T10:32:47;1.20;;;1.10;;
8094;SDS011;4090;49.270;8.696;2023-08-01T10:35:38;1.40;;;1.30;;
8094;SDS011;4090;49.270;8.696;2023-08-01T10:38:20;2.97;;;1.25;;
8094;SDS011;4090;49.270;8.696;2023-08-01T10:41:02;2.47;;;1.20;;
8094;SDS011;4090;49.270;8.696;2023-08-01T10:43:44;1.10;;;1.10;;
8094;SDS011;4090;49.270;8.696;2023-08-01T10:46:27;2.42;;;1.30;;
8094;SDS011;4090;49.270;8.696;2023-08-01T10:49:09;1.15;;;1.08;;
8094;SDS011;4090;49.270;8.696;2023-08-01T10:51:52;1.45;;;1.35;;
8094;SDS011;4090;49.270;8.696;2023-08-01T10:54:34;1.85;;;1.42;;
8094;SDS011;4090;49.270;8.696;2023-08-01T10:57:17;1.25;;;1.15;;
8094;SDS011;4090;49.270;8.696;2023-08-01T11:00:00;1.38;;;1.17;;
8094;SDS011;4090;49.270;8.696;2023-08-01T11:02:48;1.52;;;1.30;;
8094;SDS011;4090;49.270;8.696;2023-08-01T11:05:30;1.40;;;1.30;;
8094;SDS011;4090;49.270;8.696;2023-08-01T11:08:14;1.50;;;1.40;;
8094;SDS011;4090;49.270;8.696;2023-08-01T11:10:55;1.20;;;1.10;;
8094;SDS011;4090;49.270;8.696;2023-08-01T11:13:37;2.08;;;1.45;;
8094;SDS011;4090;49.270;8.696;2023-08-01T11:16:19;1.73;;;1.17;;
8094;SDS011;4090;49.270;8.696;2023-08-01T11:19:01;1.90;;;1.50;;
8094;SDS011;4090;49.270;8.696;2023-08-01T11:21:43;1.60;;;1.50;;
8094;SDS011;4090;49.270;8.696;2023-08-01T11:24:26;3.85;;;1.70;;
8094;SDS011;4090;49.270;8.696;2023-08-01T11:27:09;1.95;;;1.60;;
8094;SDS011;4090;49.270;8.696;2023-08-01T11:29:52;1.70;;;1.60;;
8094;SDS011;4090;49.270;8.696;2023-08-01T11:32:34;3.25;;;1.45;;
8094;SDS011;4090;49.270;8.696;2023-08-01T11:35:17;1.65;;;1.55;;
8094;SDS011;4090;49.270;8.696;2023-08-01T11:37:59;2.95;;;1.50;;
8094;SDS011;4090;49.270;8.696;2023-08-01T11:40:43;1.90;;;1.45;;
8094;SDS011;4090;49.270;8.696;2023-08-01T11:43:25;2.35;;;1.70;;
8094;SDS011;4090;49.270;8.696;2023-08-01T11:46:07;2.13;;;1.80;;
8094;SDS011;4090;49.270;8.696;2023-08-01T11:48:49;1.65;;;1.55;;
8094;SDS011;4090;49.270;8.696;2023-08-01T11:51:37;1.60;;;1.50;;
8094;SDS011;4090;49.270;8.696;2023-08-01T11:54:20;4.93;;;1.50;;
8094;SDS011;4090;49.270;8.696;2023-08-01T11:57:03;2.58;;;2.00;;
8094;SDS011;4090;49.270;8.696;2023-08-01T11:59:46;3.80;;;1.58;;
8094;SDS011;4090;49.270;8.696;2023-08-01T12:02:29;1.75;;;1.65;;
8094;SDS011;4090;49.270;8.696;2023-08-01T12:05:11;1.45;;;1.30;;
8094;SDS011;4090;49.270;8.696;2023-08-01T12:07:53;2.35;;;2.10;;
8094;SDS011;4090;49.270;8.696;2023-08-01T12:10:38;2.85;;;1.52;;
8094;SDS011;4090;49.270;8.696;2023-08-01T12:13:22;2.45;;;1.58;;
8094;SDS011;4090;49.270;8.696;2023-08-01T12:16:04;4.07;;;1.60;;
8094;SDS011;4090;49.270;8.696;2023-08-01T12:18:46;2.17;;;1.58;;
8094;SDS011;4090;49.270;8.696;2023-08-01T12:21:28;2.88;;;1.70;;
8094;SDS011;4090;49.270;8.696;2023-08-01T12:24:10;2.08;;;1.60;;
8094;SDS011;4090;49.270;8.696;2023-08-01T12:26:52;1.88;;;1.50;;
8094;SDS011;4090;49.270;8.696;2023-08-01T12:29:35;1.60;;;1.40;;
8094;SDS011;4090;49.270;8.696;2023-08-01T12:32:17;1.40;;;1.30;;
8094;SDS011;4090;49.270;8.696;2023-08-01T12:34:59;1.85;;;1.50;;
8094;SDS011;4090;49.270;8.696;2023-08-01T12:37:41;1.50;;;1.23;;
8094;SDS011;4090;49.270;8.696;2023-08-01T12:40:23;2.92;;;1.48;;
8094;SDS011;4090;49.270;8.696;2023-08-01T12:43:05;1.80;;;1.42;;
8094;SDS011;4090;49.270;8.696;2023-08-01T12:45:48;2.40;;;1.63;;
8094;SDS011;4090;49.270;8.696;2023-08-01T12:48:30;2.55;;;1.60;;
8094;SDS011;4090;49.270;8.696;2023-08-01T12:51:12;1.55;;;1.30;;
8094;SDS011;4090;49.270;8.696;2023-08-01T12:53:54;1.92;;;1.40;;
8094;SDS011;4090;49.270;8.696;2023-08-01T12:56:36;2.15;;;1.40;;
8094;SDS011;4090;49.270;8.696;2023-08-01T12:59:18;2.13;;;1.40;;
8094;SDS011;4090;49.270;8.696;2023-08-01T13:02:02;2.05;;;1.50;;
8094;SDS011;4090;49.270;8.696;2023-08-01T13:04:48;1.70;;;1.60;;
8094;SDS011;4090;49.270;8.696;2023-08-01T13:07:30;2.60;;;1.27;;
8094;SDS011;4090;49.270;8.696;2023-08-01T13:10:12;2.35;;;1.20;;
8094;SDS011;4090;49.270;8.696;2023-08-01T13:12:54;1.63;;;1.42;;
8094;SDS011;4090;49.270;8.696;2023-08-01T13:15:36;2.28;;;1.50;;
8094;SDS011;4090;49.270;8.696;2023-08-01T13:18:20;2.63;;;1.40;;
8094;SDS011;4090;49.270;8.696;2023-08-01T13:21:02;3.10;;;1.50;;
8094;SDS011;4090;49.270;8.696;2023-08-01T13:23:44;2.67;;;1.40;;
8094;SDS011;4090;49.270;8.696;2023-08-01T13:26:26;2.53;;;1.55;;
8094;SDS011;4090;49.270;8.696;2023-08-01T13:29:07;1.83;;;1.27;;
8094;SDS011;4090;49.270;8.696;2023-08-01T13:31:49;1.88;;;1.50;;
8094;SDS011;4090;49.270;8.696;2023-08-01T13:34:32;1.98;;;1.58;;
8094;SDS011;4090;49.270;8.696;2023-08-01T13:37:14;2.22;;;1.42;;
8094;SDS011;4090;49.270;8.696;2023-08-01T13:39:56;2.50;;;1.90;;
8094;SDS011;4090;49.270;8.696;2023-08-01T13:42:39;4.47;;;1.45;;
8094;SDS011;4090;49.270;8.696;2023-08-01T13:45:21;1.42;;;1.33;;
8094;SDS011;4090;49.270;8.696;2023-08-01T13:48:03;2.92;;;1.50;;
8094;SDS011;4090;49.270;8.696;2023-08-01T13:50:47;4.35;;;1.40;;
8094;SDS011;4090;49.270;8.696;2023-08-01T13:53:29;2.30;;;1.42;;
8094;SDS011;4090;49.270;8.696;2023-08-01T13:56:11;1.63;;;1.48;;
8094;SDS011;4090;49.270;8.696;2023-08-01T13:58:53;1.80;;;1.30;;
8094;SDS011;4090;49.270;8.696;2023-08-01T14:01:35;3.67;;;1.73;;
8094;SDS011;4090;49.270;8.696;2023-08-01T14:04:18;1.95;;;1.60;;
8094;SDS011;4090;49.270;8.696;2023-08-01T14:07:01;1.33;;;1.23;;
8094;SDS011;4090;49.270;8.696;2023-08-01T14:09:43;2.28;;;1.50;;
8094;SDS011;4090;49.270;8.696;2023-08-01T14:12:25;1.70;;;1.40;;
8094;SDS011;4090;49.270;8.696;2023-08-01T14:15:07;2.75;;;1.40;;
8094;SDS011;4090;49.270;8.696;2023-08-01T14:17:50;1.70;;;1.30;;
8094;SDS011;4090;49.270;8.696;2023-08-01T14:20:33;2.42;;;1.50;;
8094;SDS011;4090;49.270;8.696;2023-08-01T14:23:17;1.58;;;1.27;;
8094;SDS011;4090;49.270;8.696;2023-08-01T14:26:00;2.28;;;1.70;;
8094;SDS011;4090;49.270;8.696;2023-08-01T14:28:42;2.42;;;1.30;;
8094;SDS011;4090;49.270;8.696;2023-08-01T14:31:24;2.75;;;1.20;;
8094;SDS011;4090;49.270;8.696;2023-08-01T14:34:06;1.70;;;1.27;;
8094;SDS011;4090;49.270;8.696;2023-08-01T14:36:47;1.88;;;1.30;;
8094;SDS011;4090;49.270;8.696;2023-08-01T14:39:31;1.42;;;1.33;;
8094;SDS011;4090;49.270;8.696;2023-08-01T14:42:12;4.93;;;1.90;;
8094;SDS011;4090;49.270;8.696;2023-08-01T14:44:55;1.83;;;1.33;;
8094;SDS011;4090;49.270;8.696;2023-08-01T14:47:37;2.75;;;1.45;;
8094;SDS011;4090;49.270;8.696;2023-08-01T14:50:19;2.55;;;1.67;;
8094;SDS011;4090;49.270;8.696;2023-08-01T14:53:01;1.45;;;1.23;;
8094;SDS011;4090;49.270;8.696;2023-08-01T14:55:45;1.67;;;1.50;;
8094;SDS011;4090;49.270;8.696;2023-08-01T14:58:27;1.75;;;1.55;;
8094;SDS011;4090;49.270;8.696;2023-08-01T15:01:12;1.75;;;1.23;;
8094;SDS011;4090;49.270;8.696;2023-08-01T15:03:54;2.38;;;1.60;;
8094;SDS011;4090;49.270;8.696;2023-08-01T15:06:36;3.40;;;1.50;;
8094;SDS011;4090;49.270;8.696;2023-08-01T15:09:18;3.67;;;1.50;;
8094;SDS011;4090;49.270;8.696;2023-08-01T15:12:01;1.70;;;1.33;;
8094;SDS011;4090;49.270;8.696;2023-08-01T15:14:43;2.13;;;1.50;;
8094;SDS011;4090;49.270;8.696;2023-08-01T15:17:25;1.40;;;1.30;;
8094;SDS011;4090;49.270;8.696;2023-08-01T15:20:07;1.42;;;1.30;;
8094;SDS011;4090;49.270;8.696;2023-08-01T15:22:50;2.03;;;1.45;;
8094;SDS011;4090;49.270;8.696;2023-08-01T15:25:32;2.15;;;1.30;;
8094;SDS011;4090;49.270;8.696;2023-08-01T15:28:15;2.40;;;1.45;;
8094;SDS011;4090;49.270;8.696;2023-08-01T15:31:01;2.17;;;1.40;;
8094;SDS011;4090;49.270;8.696;2023-08-01T15:33:44;1.95;;;1.45;;
8094;SDS011;4090;49.270;8.696;2023-08-01T15:36:27;3.28;;;1.35;;
8094;SDS011;4090;49.270;8.696;2023-08-01T15:39:10;2.63;;;1.40;;
8094;SDS011;4090;49.270;8.696;2023-08-01T15:41:52;2.10;;;1.58;;
8094;SDS011;4090;49.270;8.696;2023-08-01T15:44:35;2.63;;;1.45;;
8094;SDS011;4090;49.270;8.696;2023-08-01T15:47:17;2.75;;;1.65;;
8094;SDS011;4090;49.270;8.696;2023-08-01T15:49:59;1.77;;;1.40;;
8094;SDS011;4090;49.270;8.696;2023-08-01T15:52:40;2.58;;;1.40;;
8094;SDS011;4090;49.270;8.696;2023-08-01T15:55:22;1.38;;;1.27;;
8094;SDS011;4090;49.270;8.696;2023-08-01T15:58:04;2.38;;;1.52;;
8094;SDS011;4090;49.270;8.696;2023-08-01T16:00:47;1.75;;;1.38;;
8094;SDS011;4090;49.270;8.696;2023-08-01T16:03:29;1.73;;;1.40;;
8094;SDS011;4090;49.270;8.696;2023-08-01T16:06:11;2.55;;;1.50;;
8094;SDS011;4090;49.270;8.696;2023-08-01T16:08:54;1.52;;;1.30;;
8094;SDS011;4090;49.270;8.696;2023-08-01T16:11:36;2.22;;;1.48;;
8094;SDS011;4090;49.270;8.696;2023-08-01T16:14:18;1.38;;;1.27;;
8094;SDS011;4090;49.270;8.696;2023-08-01T16:17:01;3.83;;;2.00;;
8094;SDS011;4090;49.270;8.696;2023-08-01T16:19:43;2.17;;;1.50;;
8094;SDS011;4090;49.270;8.696;2023-08-01T16:22:25;2.33;;;1.42;;
8094;SDS011;4090;49.270;8.696;2023-08-01T16:25:07;5.85;;;1.60;;
8094;SDS011;4090;49.270;8.696;2023-08-01T16:27:49;1.75;;;1.33;;
8094;SDS011;4090;49.270;8.696;2023-08-01T16:30:31;2.63;;;1.60;;
8094;SDS011;4090;49.270;8.696;2023-08-01T16:33:14;2.25;;;1.52;;
8094;SDS011;4090;49.270;8.696;2023-08-01T16:35:57;3.22;;;1.52;;
8094;SDS011;4090;49.270;8.696;2023-08-01T16:38:39;3.40;;;1.60;;
8094;SDS011;4090;49.270;8.696;2023-08-01T16:41:21;2.40;;;1.50;;
8094;SDS011;4090;49.270;8.696;2023-08-01T16:44:03;3.90;;;1.65;;
8094;SDS011;4090;49.270;8.696;2023-08-01T16:46:45;3.78;;;1.58;;
8094;SDS011;4090;49.270;8.696;2023-08-01T16:49:28;1.70;;;1.58;;